Time;durP1;ratioP1;P1;durP2;ratioP2;P2;SDS_P1;SDS_P2;PMS_P1;PMS_P2;Temp;Humidity;BMP_temperature;BMP_pressure;BME280_temperature;BME280_humidity;BME280_pressure;Samples;Min_cycle;Max_cycle;Signal;HPM_P1;HPM_P2
2023/06/17 00:01:17;;;;;;;4.53;3.07;;;15.90;87.10;;;15.62;72.92;97917.56;5029781;28;20469;-84
2023/06/17 00:03:45;;;;;;;3.77;3.00;;;15.90;87.10;;;15.36;73.15;97892.69;5013208;28;20492;-84
2023/06/17 00:06:13;;;;;;;3.37;3.07;;;15.80;87.00;;;15.42;73.56;97917.00;5018465;28;20491;-75
2023/06/17 00:08:40;;;;;;;5.30;4.07;;;15.80;86.90;;;15.35;73.56;97915.53;5042028;28;20457;-78
2023/06/17 00:11:09;;;;;;;3.47;3.17;;;15.70;87.20;;;15.40;73.70;97913.72;5033224;28;20451;-78
2023/06/17 00:13:37;;;;;;;3.53;3.23;;;15.70;87.30;;;15.40;73.77;97912.91;5030452;28;20507;-81
2023/06/17 00:16:06;;;;;;;3.60;3.23;;;15.70;87.60;;;15.50;73.44;97913.03;5030053;28;20457;-78
2023/06/17 00:18:33;;;;;;;3.83;3.53;;;15.60;87.80;;;15.29;73.92;97901.84;5028938;28;20489;-82
2023/06/17 00:21:02;;;;;;;4.40;3.27;;;15.60;88.10;;;15.36;73.69;97909.00;5025795;28;20484;-83
2023/06/17 00:23:30;;;;;;;5.47;3.67;;;15.60;88.10;;;15.26;74.39;97906.97;5010287;28;20571;-82
2023/06/17 00:25:58;;;;;;;3.47;3.10;;;15.60;88.40;;;15.36;74.53;97911.72;5035784;28;20481;-82
2023/06/17 00:28:27;;;;;;;4.13;3.77;;;15.60;88.60;;;15.39;74.14;97898.44;5039222;28;20526;-85
2023/06/17 00:30:54;;;;;;;3.60;3.20;;;15.50;89.30;;;15.40;74.08;97904.75;5012038;28;20458;-83
2023/06/17 00:33:21;;;;;;;3.40;3.10;;;15.60;89.00;;;15.38;74.41;97901.41;5011539;28;20565;-83
2023/06/17 00:35:49;;;;;;;6.10;5.33;;;15.50;89.00;;;15.36;73.74;97892.69;5029768;28;20464;-80
2023/06/17 00:38:16;;;;;;;4.70;3.90;;;15.50;88.60;;;15.38;73.91;97885.09;5013604;28;21068;-79
2023/06/17 00:40:43;;;;;;;4.07;3.67;;;15.60;88.60;;;15.12;72.34;97824.84;5013489;28;20525;-80
2023/06/17 00:43:10;;;;;;;4.13;3.73;;;15.60;87.00;;;15.36;72.01;97877.19;5030595;28;20459;-83
2023/06/17 00:45:39;;;;;;;3.20;2.90;;;15.60;86.20;;;15.32;72.41;97875.22;5032504;28;20480;-83
2023/06/17 00:48:08;;;;;;;3.80;3.50;;;15.60;86.20;;;14.97;72.23;97836.31;5003858;28;20553;-84
2023/06/17 00:50:37;;;;;;;3.40;2.90;;;15.50;86.10;;;15.22;72.58;97873.16;5013412;28;20458;-77
2023/06/17 00:53:05;;;;;;;3.80;3.37;;;15.50;86.10;;;15.15;72.35;97871.41;5009524;28;20521;-84
2023/06/17 00:55:34;;;;;;;4.50;2.93;;;15.40;86.50;;;15.04;72.77;97885.13;5025882;28;20453;-79
2023/06/17 00:58:02;;;;;;;3.57;3.30;;;15.30;86.30;;;15.08;73.36;97872.66;5019616;28;20465;-78
2023/06/17 01:00:29;;;;;;;3.67;3.37;;;15.20;88.10;;;15.04;73.73;97874.25;5008209;28;20467;-81
2023/06/17 01:02:58;;;;;;;4.10;3.40;;;15.30;87.40;;;14.99;73.81;97878.53;5015507;28;20457;-82
2023/06/17 01:05:27;;;;;;;3.93;3.27;;;15.20;87.20;;;14.85;73.48;97871.78;5026841;28;20546;-81
2023/06/17 01:08:12;;;;;;;3.70;3.40;;;15.10;87.30;;;14.80;74.32;97868.97;5031186;28;20485;-82
2023/06/17 01:10:47;;;;;;;4.30;3.90;;;15.10;88.10;;;14.75;74.59;97858.84;5012591;28;20471;-81
2023/06/17 01:13:17;;;;;;;5.97;3.60;;;15.00;88.60;;;14.77;74.54;97858.56;5030809;28;20514;-81
2023/06/17 01:15:44;;;;;;;3.50;3.20;;;14.90;89.50;;;14.77;74.75;97864.00;5032254;28;20464;-83
2023/06/17 01:18:17;;;;;;;3.93;3.60;;;14.90;89.40;;;14.66;75.54;97874.72;5018115;28;20484;-83
2023/06/17 01:20:47;;;;;;;4.10;3.70;;;14.90;89.50;;;14.60;75.52;97872.94;5025225;28;20462;-84
2023/06/17 01:23:16;;;;;;;3.83;3.53;;;14.90;89.90;;;14.52;75.37;97854.34;5047164;28;20463;-79
2023/06/17 01:25:46;;;;;;;4.00;3.60;;;14.70;89.90;;;14.36;76.46;97847.78;5039049;28;20510;-81
2023/06/17 01:28:17;;;;;;;4.30;3.90;;;14.60;90.80;;;14.38;76.76;97862.78;5039811;28;20463;-83
2023/06/17 01:30:46;;;;;;;4.80;4.03;;;14.50;91.00;;;14.40;76.82;97860.66;5022010;28;20451;-80
2023/06/17 01:33:16;;;;;;;4.73;3.70;;;14.60;91.20;;;14.32;76.87;97858.31;5046540;28;20455;-85
2023/06/17 01:35:54;;;;;;;3.63;3.33;;;14.60;91.10;;;14.29;77.21;97861.53;5028005;28;20478;-87
2023/06/17 01:38:29;;;;;;;5.90;3.93;;;14.50;91.10;;;14.15;77.47;97859.09;5036050;28;20491;-79
2023/06/17 01:41:04;;;;;;;4.30;3.90;;;14.40;91.60;;;14.05;78.13;97858.94;5021168;28;20811;-81
2023/06/17 01:43:35;;;;;;;4.17;3.77;;;14.30;91.80;;;13.84;79.21;97861.22;5017134;28;20465;-82
2023/06/17 01:46:02;;;;;;;4.70;3.97;;;14.20;92.30;;;13.80;79.63;97868.22;5033348;28;20533;-79
2023/06/17 01:48:30;;;;;;;4.30;3.90;;;14.10;92.60;;;13.72;81.15;97857.72;5040036;28;20476;-82
2023/06/17 01:50:57;;;;;;;4.30;3.90;;;14.10;94.00;;;13.67;83.11;97869.31;5044737;28;20468;-79
2023/06/17 01:53:25;;;;;;;4.73;4.33;;;14.00;95.50;;;13.56;84.03;97872.88;5053934;28;20466;-75
2023/06/17 01:55:53;;;;;;;5.00;4.57;;;13.90;96.20;;;13.43;85.29;97874.75;5044910;28;20466;-80
2023/06/17 01:58:22;;;;;;;5.27;4.77;;;13.90;97.30;;;13.43;85.77;97876.63;5037794;28;20459;-74
2023/06/17 02:00:49;;;;;;;7.60;5.00;;;13.80;98.30;;;13.44;85.55;97875.59;5036187;28;20474;-81
2023/06/17 02:03:17;;;;;;;4.90;4.40;;;13.70;97.90;;;13.33;86.07;97855.50;5045638;28;20461;-80
2023/06/17 02:05:45;;;;;;;6.40;5.13;;;13.70;98.70;;;13.29;87.03;97868.72;5036277;28;20562;-83
2023/06/17 02:08:14;;;;;;;5.80;5.20;;;13.70;99.80;;;13.31;87.02;97866.59;5033199;28;20669;-77
2023/06/17 02:10:42;;;;;;;6.03;5.50;;;13.60;99.90;;;13.35;86.85;97876.97;5036291;28;20458;-81
2023/06/17 02:13:09;;;;;;;5.67;5.17;;;13.60;99.80;;;13.24;87.26;97882.16;5018694;28;20487;-75
2023/06/17 02:15:38;;;;;;;5.87;5.30;;;13.60;99.90;;;13.22;87.85;97873.44;5040807;28;20467;-82
2023/06/17 02:18:06;;;;;;;6.33;5.67;;;13.60;99.90;;;13.17;88.23;97873.34;5036729;28;20463;-80
2023/06/17 02:20:34;;;;;;;5.20;4.70;;;13.50;99.90;;;13.08;88.18;97869.31;5012936;28;20479;-80
2023/06/17 02:23:03;;;;;;;6.60;5.70;;;13.50;99.90;;;12.59;89.03;97805.28;5008615;28;20542;-81
2023/06/17 02:25:31;;;;;;;6.10;5.60;;;13.40;99.90;;;13.07;88.99;97887.47;5012539;28;20545;-85
2023/06/17 02:27:59;;;;;;;5.93;5.30;;;13.40;99.90;;;13.05;88.97;97867.91;5027831;28;20458;-80
2023/06/17 02:30:27;;;;;;;6.43;5.33;;;13.40;99.90;;;13.05;89.30;97873.34;5030310;28;20463;-85
2023/06/17 02:32:55;;;;;;;5.40;4.40;;;13.40;99.90;;;12.88;89.09;97848.78;5028660;28;20466;-82
2023/06/17 02:35:23;;;;;;;6.13;5.20;;;13.30;99.90;;;12.94;89.52;97877.66;5029012;28;20456;-75
2023/06/17 02:37:50;;;;;;;6.50;5.30;;;13.30;99.90;;;12.85;89.83;97860.91;5029840;28;20455;-86
2023/06/17 02:40:17;;;;;;;5.87;5.27;;;13.30;99.90;;;12.88;89.79;97865.06;5028173;28;20483;-77
2023/06/17 02:42:44;;;;;;;6.27;5.40;;;13.20;99.90;;;12.87;90.14;97869.63;5029110;28;20476;-76
2023/06/17 02:45:12;;;;;;;5.70;5.13;;;13.20;99.90;;;12.82;90.41;97860.59;5017832;28;20458;-81
2023/06/17 02:47:40;;;;;;;5.60;5.10;;;13.10;99.90;;;12.75;90.48;97866.91;5043621;28;20475;-79
2023/06/17 02:50:10;;;;;;;5.73;5.23;;;13.10;99.90;;;12.77;91.29;97866.69;5020736;28;20451;-81
2023/06/17 02:52:37;;;;;;;5.40;4.87;;;13.10;99.90;;;12.79;90.88;97866.44;5024056;28;20468;-76
2023/06/17 02:55:06;;;;;;;5.30;4.80;;;13.10;99.90;;;12.74;91.07;97875.31;5031798;28;20462;-83
2023/06/17 02:57:33;;;;;;;7.00;5.40;;;13.10;99.90;;;12.69;91.18;97862.44;5004471;28;20472;-84
2023/06/17 03:00:00;;;;;;;7.03;5.90;;;13.00;99.90;;;12.38;91.22;97812.91;5029360;28;20453;-84
2023/06/17 03:02:28;;;;;;;5.60;5.10;;;13.00;99.90;;;12.75;91.18;97868.81;5029017;28;20953;-83
2023/06/17 03:04:55;;;;;;;5.93;5.30;;;13.00;99.90;;;12.66;91.64;97871.06;5020786;28;20847;-80
2023/06/17 03:07:24;;;;;;;5.60;5.00;;;13.00;99.90;;;12.67;91.93;97872.69;5044972;28;20494;-77
2023/06/17 03:09:52;;;;;;;5.90;5.30;;;13.00;99.90;;;12.60;91.75;97871.97;5047900;28;20502;-79
2023/06/17 03:12:19;;;;;;;6.87;4.77;;;13.00;99.90;;;12.60;91.20;97882.81;5019911;28;20547;-83
2023/06/17 03:14:47;;;;;;;5.90;5.13;;;13.00;99.90;;;12.53;91.31;97863.94;5013732;28;20446;-79
2023/06/17 03:17:14;;;;;;;5.23;4.67;;;12.90;99.90;;;12.56;91.43;97881.63;5012770;28;20459;-74
2023/06/17 03:19:43;;;;;;;4.93;4.43;;;12.90;99.90;;;12.61;91.23;97885.28;5032482;28;20879;-82
2023/06/17 03:22:11;;;;;;;6.10;5.20;;;12.90;99.90;;;12.45;91.37;97870.50;5014596;28;20540;-83
2023/06/17 03:24:39;;;;;;;7.07;5.50;;;12.80;99.90;;;12.29;92.11;97847.63;5011763;28;20462;-82
2023/06/17 03:27:07;;;;;;;6.67;5.83;;;12.80;99.90;;;12.55;92.00;97878.06;5031131;28;22441;-79
2023/06/17 03:29:35;;;;;;;7.37;6.00;;;12.80;99.90;;;12.60;91.54;97888.22;5033407;28;20524;-81
2023/06/17 03:32:02;;;;;;;5.90;5.30;;;12.90;99.90;;;12.54;92.26;97884.56;5010636;28;20467;-83
2023/06/17 03:34:31;;;;;;;6.60;6.00;;;12.90;99.90;;;12.51;92.38;97878.75;5031152;28;20463;-79
2023/06/17 03:36:58;;;;;;;6.60;5.90;;;12.90;99.90;;;12.53;92.47;97882.91;5012585;28;20466;-79
2023/06/17 03:39:25;;;;;;;7.07;6.37;;;12.90;99.90;;;12.52;92.90;97888.56;5013297;28;20513;-82
2023/06/17 03:41:54;;;;;;;7.60;6.07;;;12.90;99.90;;;12.49;93.57;97880.88;5033450;28;20454;-79
2023/06/17 03:44:21;;;;;;;7.10;6.30;;;12.90;99.90;;;12.47;93.87;97884.66;5030462;28;20507;-80
2023/06/17 03:46:48;;;;;;;6.33;5.73;;;12.90;99.90;;;12.55;93.27;97882.69;5032426;28;20944;-81
2023/06/17 03:49:15;;;;;;;5.87;5.30;;;12.90;99.90;;;12.25;93.10;97821.22;5034286;28;20468;-80
2023/06/17 03:51:42;;;;;;;6.63;5.77;;;12.90;99.90;;;12.53;93.27;97873.97;5013374;28;20470;-83
2023/06/17 03:54:10;;;;;;;5.97;5.47;;;13.00;99.90;;;12.65;92.46;97880.22;5013958;28;20460;-82
2023/06/17 03:56:37;;;;;;;6.80;6.10;;;13.00;99.90;;;12.71;92.02;97879.31;5013035;28;20459;-82
2023/06/17 03:59:06;;;;;;;6.83;6.07;;;13.10;99.90;;;12.75;91.69;97868.81;5027025;28;20464;-82
2023/06/17 04:01:33;;;;;;;7.77;6.43;;;13.20;99.90;;;12.84;91.50;97872.81;5028599;28;21049;-83
2023/06/17 04:04:00;;;;;;;6.20;5.70;;;13.30;99.90;;;13.01;90.43;97867.53;5030439;28;20466;-80
2023/06/17 04:06:27;;;;;;;7.20;6.20;;;13.40;99.90;;;13.69;88.07;97866.34;5026466;28;20585;-78
2023/06/17 04:08:54;;;;;;;7.47;6.03;;;14.00;99.90;;;14.28;83.79;97863.44;5010892;28;20457;-81
2023/06/17 04:11:21;;;;;;;5.93;5.23;;;14.70;94.80;;;14.79;80.58;97873.59;5006289;28;21168;-78
2023/06/17 04:13:48;;;;;;;5.87;5.27;;;15.30;91.70;;;14.99;78.67;97878.53;5013951;28;20457;-82
2023/06/17 04:16:17;;;;;;;7.00;5.20;;;15.80;89.70;;;14.96;78.75;97876.31;5026263;28;20901;-81
2023/06/17 04:18:45;;;;;;;6.23;5.37;;;15.80;89.10;;;15.04;77.69;97874.25;5027917;28;20534;-76
2023/06/17 04:21:12;;;;;;;6.27;5.37;;;15.90;88.40;;;15.01;78.27;97875.56;5025580;28;20453;-78
2023/06/17 04:23:40;;;;;;;5.77;5.13;;;15.80;88.40;;;15.54;76.11;97873.38;5011022;28;20532;-84
2023/06/17 04:26:12;;;;;;;4.93;4.50;;;16.10;87.80;;;16.32;72.70;97871.59;5028703;28;20966;-82
2023/06/17 04:28:40;;;;;;;5.17;4.67;;;16.80;86.10;;;16.75;69.77;97870.88;5029906;28;20984;-84
2023/06/17 04:31:10;;;;;;;5.47;5.00;;;17.30;84.10;;;16.96;68.62;97867.25;5025483;28;20465;-82
2023/06/17 04:33:40;;;;;;;5.17;4.67;;;17.50;83.00;;;16.80;68.48;97860.03;5009320;28;20528;-81
2023/06/17 04:36:09;;;;;;;6.00;4.90;;;17.60;82.30;;;16.58;68.73;97869.09;5021814;28;20508;-83
2023/06/17 04:38:38;;;;;;;5.20;4.70;;;17.30;82.20;;;16.28;68.83;97873.16;5023788;28;20539;-83
2023/06/17 04:41:05;;;;;;;6.07;5.00;;;17.20;82.00;;;15.74;71.23;97866.53;5036855;28;20546;-75
2023/06/17 04:43:36;;;;;;;4.80;4.40;;;16.60;82.80;;;15.66;71.54;97877.84;5033338;28;20461;-84
2023/06/17 04:46:04;;;;;;;5.20;4.80;;;16.20;84.00;;;14.67;72.34;97767.59;5042998;28;20963;-75
2023/06/17 04:48:31;;;;;;;5.17;4.67;;;16.00;84.40;;;15.15;73.67;97870.63;5027081;28;20449;-81
2023/06/17 04:51:00;;;;;;;5.50;5.00;;;15.80;85.30;;;16.18;69.81;97870.34;5031997;28;20464;-79
2023/06/17 04:53:27;;;;;;;4.90;4.40;;;16.50;84.00;;;17.62;65.13;97869.88;5040051;28;21290;-83
2023/06/17 04:55:55;;;;;;;4.80;4.37;;;17.70;81.80;;;18.12;62.47;97868.50;5027575;28;20461;-82
2023/06/17 04:58:22;;;;;;;5.03;4.63;;;18.50;79.40;;;18.80;60.09;97866.72;5033953;28;20559;-80
2023/06/17 05:00:49;;;;;;;5.60;4.90;;;19.10;77.70;;;18.14;61.51;97864.69;5035620;28;20468;-82
2023/06/17 05:03:17;;;;;;;5.57;4.93;;;19.00;76.60;;;17.93;62.38;97875.47;5039483;28;20461;-83
2023/06/17 05:05:44;;;;;;;5.80;5.30;;;18.80;76.90;;;18.14;61.14;97832.69;5023065;28;20457;-83
2023/06/17 05:08:13;;;;;;;4.97;4.57;;;19.00;76.40;;;19.63;57.46;97860.31;5034330;28;20543;-73
2023/06/17 05:10:40;;;;;;;5.20;4.70;;;19.90;75.20;;;19.33;57.53;97864.75;5018907;28;20439;-80
2023/06/17 05:13:07;;;;;;;6.27;5.67;;;20.10;72.90;;;19.61;56.48;97862.50;5036425;28;20511;-83
2023/06/17 05:15:36;;;;;;;5.10;4.70;;;20.30;72.00;;;19.29;56.94;97866.41;5042188;28;20454;-81
2023/06/17 05:18:03;;;;;;;6.33;5.20;;;20.50;71.00;;;19.41;56.56;97845.03;5016120;28;20454;-75
2023/06/17 05:20:31;;;;;;;5.30;4.80;;;20.30;71.00;;;18.99;56.89;97825.13;5023214;28;20453;-84
2023/06/17 05:22:58;;;;;;;5.70;5.10;;;20.30;70.60;;;19.75;55.95;97866.28;5034186;28;20454;-86
2023/06/17 05:25:26;;;;;;;6.47;5.97;;;20.30;71.10;;;20.49;53.43;97837.44;5039533;28;21032;-75
2023/06/17 05:27:54;;;;;;;5.90;5.40;;;21.10;69.30;;;20.39;54.75;97872.06;5038265;28;20483;-84
2023/06/17 05:30:21;;;;;;;6.20;5.60;;;21.20;68.90;;;20.49;54.11;97870.38;5037880;28;20466;-81
2023/06/17 05:32:48;;;;;;;5.23;4.80;;;21.40;67.90;;;21.05;52.45;97871.09;5038252;28;20475;-84
2023/06/17 05:35:16;;;;;;;6.73;6.13;;;21.60;67.30;;;22.01;49.72;97875.03;5016721;28;20492;-82
2023/06/17 05:37:43;;;;;;;5.90;5.40;;;22.10;66.30;;;22.07;49.15;97818.03;5017496;28;21221;-86
2023/06/17 05:40:11;;;;;;;6.50;5.77;;;22.50;65.50;;;21.26;51.68;97877.22;5025185;28;20476;-81
2023/06/17 05:42:39;;;;;;;6.27;5.67;;;22.20;64.80;;;20.90;52.03;97870.09;5030147;28;20458;-83
2023/06/17 05:45:08;;;;;;;6.30;5.80;;;21.70;64.60;;;21.29;51.44;97886.78;5026466;28;20481;-83
2023/06/17 05:47:35;;;;;;;7.87;6.03;;;21.70;65.10;;;21.57;50.68;97876.06;5036371;28;21026;-83
2023/06/17 05:50:04;;;;;;;6.47;5.87;;;22.00;64.60;;;20.88;51.46;97836.63;5002038;28;20527;-72
2023/06/17 05:52:31;;;;;;;6.67;6.00;;;22.00;63.90;;;20.35;53.21;97871.00;5030154;28;20535;-73
2023/06/17 05:54:59;;;;;;;6.70;6.10;;;21.30;64.90;;;18.85;58.20;97887.75;5027021;28;20896;-76
2023/06/17 05:57:26;;;;;;;7.13;6.47;;;19.60;67.70;;;18.82;59.06;97882.84;5030908;28;20462;-77
2023/06/17 05:59:55;;;;;;;6.23;5.73;;;19.20;70.30;;;19.57;56.18;97883.34;5024052;28;20464;-80
2023/06/17 06:02:22;;;;;;;7.00;6.40;;;19.90;69.70;;;19.60;56.67;97882.78;5005743;28;21020;-75
2023/06/17 06:04:50;;;;;;;7.60;6.90;;;20.20;69.30;;;20.69;53.33;97880.38;5025680;28;20457;-75
2023/06/17 06:07:17;;;;;;;7.60;6.90;;;20.70;68.30;;;20.10;54.34;97885.66;5022153;28;20488;-75
2023/06/17 06:09:44;;;;;;;7.50;6.67;;;20.30;67.90;;;19.75;55.42;97884.69;5024377;28;20468;-73
2023/06/17 06:12:12;;;;;;;7.70;6.90;;;20.00;68.70;;;19.56;56.54;97895.41;5010873;28;20469;-75
2023/06/17 06:14:39;;;;;;;7.50;6.77;;;20.00;69.30;;;19.73;55.91;97890.41;5027986;28;20450;-75
2023/06/17 06:17:08;;;;;;;7.47;6.63;;;20.10;69.10;;;20.09;55.17;97895.81;5024853;28;20548;-75
2023/06/17 06:19:36;;;;;;;7.40;6.80;;;20.50;68.60;;;20.58;53.42;97895.28;5026995;28;21074;-74
2023/06/17 06:22:03;;;;;;;7.73;6.93;;;21.00;67.40;;;20.00;54.92;97902.97;5005281;28;20548;-71
2023/06/17 06:24:30;;;;;;;8.40;7.00;;;20.50;67.40;;;20.81;53.04;97893.78;5031871;28;20975;-73
2023/06/17 06:26:57;;;;;;;6.60;6.00;;;21.10;67.30;;;21.25;51.57;97896.72;5034714;28;20485;-74
2023/06/17 06:29:25;;;;;;;7.17;6.47;;;21.70;65.70;;;20.42;54.14;97897.31;5048251;28;20535;-86
2023/06/17 06:31:53;;;;;;;7.73;7.03;;;21.20;65.80;;;20.11;54.85;97906.50;5042060;28;20528;-86
2023/06/17 06:34:22;;;;;;;8.00;7.20;;;20.80;66.80;;;19.91;55.18;97889.00;5043721;28;20464;-79
2023/06/17 06:36:49;;;;;;;7.40;6.80;;;20.40;67.50;;;19.93;55.72;97910.66;5018699;28;20471;-84
2023/06/17 06:39:17;;;;;;;8.30;7.50;;;20.20;68.40;;;19.62;56.53;97905.25;5020670;28;20461;-84
2023/06/17 06:41:44;;;;;;;7.90;7.13;;;19.80;69.10;;;19.67;55.40;97851.25;5028476;28;20490;-84
2023/06/17 06:44:11;;;;;;;7.57;6.97;;;20.00;69.00;;;20.15;55.08;97904.81;5027268;28;20479;-83
2023/06/17 06:46:39;;;;;;;8.73;7.93;;;20.20;69.10;;;20.58;54.00;97909.00;5026439;28;20583;-81
2023/06/17 06:49:06;;;;;;;10.00;7.10;;;20.60;68.80;;;20.82;52.78;97911.88;5000053;28;20452;-90
2023/06/17 06:51:36;;;;;;;7.50;6.80;;;20.80;67.50;;;20.65;52.57;97907.56;5025405;28;20473;-78
2023/06/17 06:54:04;;;;;;;7.77;7.03;;;21.10;66.30;;;20.86;52.80;97902.00;5025320;28;20588;-79
2023/06/17 06:56:31;;;;;;;7.80;7.00;;;21.10;66.70;;;21.26;50.51;97898.34;5021013;28;20541;-74
2023/06/17 06:58:59;;;;;;;7.00;6.37;;;21.30;65.20;;;20.97;50.94;97910.97;5007986;28;20461;-75
2023/06/17 07:01:27;;;;;;;7.53;6.50;;;21.40;64.50;;;21.14;50.78;97912.47;5027504;28;20515;-77
2023/06/17 07:03:55;;;;;;;7.33;6.63;;;21.40;64.60;;;21.33;50.43;97916.16;5024046;28;20466;-75
2023/06/17 07:06:22;;;;;;;7.10;6.40;;;21.50;64.50;;;21.17;49.86;97906.41;5008596;28;21194;-83
2023/06/17 07:08:51;;;;;;;7.30;6.30;;;21.50;63.50;;;20.54;50.66;97916.97;5027206;28;20565;-76
2023/06/17 07:11:18;;;;;;;7.13;6.17;;;21.10;63.10;;;20.42;51.33;97913.75;5010493;28;20452;-76
2023/06/17 07:13:46;;;;;;;7.83;6.70;;;20.70;63.70;;;20.55;50.88;97915.88;5010635;28;20452;-77
2023/06/17 07:16:14;;;;;;;7.00;6.40;;;20.70;63.50;;;20.58;50.24;97909.00;5028141;28;20988;-77
2023/06/17 07:18:43;;;;;;;7.50;6.80;;;20.80;63.00;;;20.78;50.36;97919.03;5011196;28;20466;-76
2023/06/17 07:21:10;;;;;;;6.90;6.20;;;20.90;63.50;;;21.16;50.00;97911.09;5025902;28;20446;-75
2023/06/17 07:23:38;;;;;;;7.00;6.40;;;21.20;63.50;;;20.89;50.10;97915.13;5023433;28;20977;-77
2023/06/17 07:26:07;;;;;;;6.73;6.13;;;21.10;63.10;;;21.15;49.81;97919.59;5007021;28;20548;-73
2023/06/17 07:28:35;;;;;;;7.00;6.30;;;21.20;63.10;;;20.89;50.35;97917.88;5012278;28;21113;-77
2023/06/17 07:31:02;;;;;;;5.97;5.37;;;21.10;62.90;;;20.99;49.57;97910.66;5026528;28;20457;-75
2023/06/17 07:33:30;;;;;;;6.87;5.70;;;21.10;62.60;;;21.30;49.20;97915.91;5022760;28;20477;-77
2023/06/17 07:35:57;;;;;;;6.90;6.30;;;21.40;62.60;;;21.25;48.72;97924.19;5022968;28;20502;-78
2023/06/17 07:38:25;;;;;;;7.03;5.60;;;21.50;61.60;;;21.14;49.68;97918.78;5024383;28;20458;-74
2023/06/17 07:40:52;;;;;;;7.03;6.13;;;21.50;62.20;;;21.48;48.59;97923.44;5033093;28;20892;-77
2023/06/17 07:43:21;;;;;;;6.30;5.70;;;21.60;61.80;;;21.36;48.43;97921.06;5035615;28;20479;-77
2023/06/17 07:45:49;;;;;;;7.20;6.43;;;21.60;61.30;;;21.48;48.64;97917.94;5027088;28;20465;-78
2023/06/17 07:48:16;;;;;;;5.90;5.43;;;21.60;61.30;;;21.35;47.87;97888.38;5027798;28;20847;-77
2023/06/17 07:50:44;;;;;;;5.63;5.13;;;21.70;60.70;;;21.63;46.07;97916.16;5027037;28;20474;-75
2023/06/17 07:53:12;;;;;;;6.10;5.47;;;21.80;59.30;;;21.64;46.06;97924.09;5008337;28;21293;-77
2023/06/17 07:55:39;;;;;;;6.07;5.53;;;21.80;58.70;;;21.74;45.83;97914.13;5009075;28;20468;-79
2023/06/17 07:58:07;;;;;;;5.67;5.17;;;22.00;58.70;;;22.11;45.96;97909.03;5022510;28;20463;-78
2023/06/17 08:00:36;;;;;;;6.23;5.63;;;22.20;59.00;;;22.48;44.94;97916.56;5024302;28;20453;-79
2023/06/17 08:03:03;;;;;;;5.60;5.10;;;22.50;58.80;;;22.60;43.09;97907.84;5026323;28;20459;-75
2023/06/17 08:05:31;;;;;;;5.57;5.07;;;22.70;56.90;;;22.80;43.33;97900.41;5030235;28;20560;-72
2023/06/17 08:07:58;;;;;;;6.20;4.90;;;22.90;56.80;;;22.27;44.19;97904.97;5008461;28;20699;-73
2023/06/17 08:10:26;;;;;;;6.23;5.23;;;22.60;56.70;;;21.99;45.35;97909.44;5018879;28;20473;-73
2023/06/17 08:12:53;;;;;;;6.60;6.00;;;22.20;57.30;;;22.22;45.41;97902.31;5019269;28;20468;-74
2023/06/17 08:15:20;;;;;;;5.80;5.30;;;22.30;57.80;;;22.17;44.51;97894.09;5022929;28;20456;-74
2023/06/17 08:17:50;;;;;;;6.40;5.80;;;22.40;57.00;;;22.33;44.59;97901.03;5021558;28;20454;-75
2023/06/17 08:20:17;;;;;;;6.40;5.80;;;22.40;57.00;;;22.34;44.49;97891.66;5024336;28;20463;-74
2023/06/17 08:22:45;;;;;;;5.17;4.67;;;22.40;57.10;;;22.62;43.24;97894.59;5028605;28;20465;-72
2023/06/17 08:25:12;;;;;;;6.37;5.70;;;22.60;56.50;;;22.87;42.97;97889.84;5022074;28;20753;-74
2023/06/17 08:27:42;;;;;;;6.63;6.03;;;22.90;56.50;;;22.39;43.48;97849.50;5005122;28;20512;-72
2023/06/17 08:30:10;;;;;;;5.60;5.10;;;22.80;56.20;;;22.35;44.21;97890.53;5016478;28;20468;-74
2023/06/17 08:32:38;;;;;;;5.83;5.27;;;22.60;56.10;;;22.31;43.32;97881.25;5008682;28;20465;-74
2023/06/17 08:35:07;;;;;;;6.10;5.17;;;22.50;55.60;;;22.24;43.78;97888.25;5009178;28;21040;-73
2023/06/17 08:37:35;;;;;;;6.67;5.87;;;22.50;55.50;;;22.05;44.11;97891.78;5025653;28;20740;-74
2023/06/17 08:40:03;;;;;;;6.23;5.63;;;22.30;55.50;;;22.17;44.06;97867.41;5025173;28;20815;-70
2023/06/17 08:42:31;;;;;;;6.17;5.63;;;22.30;56.00;;;22.23;44.31;97881.94;5025319;28;20457;-74
2023/06/17 08:45:00;;;;;;;6.30;5.70;;;22.40;55.70;;;22.47;43.56;97878.28;5025767;28;20472;-74
2023/06/17 08:47:28;;;;;;;9.07;4.40;;;22.50;55.60;;;22.35;42.20;97865.78;5026035;28;20462;-73
2023/06/17 08:49:56;;;;;;;5.30;4.90;;;22.50;54.00;;;22.67;42.21;97868.94;5026318;28;20982;-75
2023/06/17 08:52:27;;;;;;;6.10;5.60;;;22.70;54.50;;;22.85;42.01;97866.47;5028608;28;20575;-73
2023/06/17 08:54:55;;;;;;;6.40;5.20;;;22.90;54.50;;;23.05;41.89;97865.31;5028568;28;20465;-73
2023/06/17 08:57:22;;;;;;;6.90;6.20;;;23.00;54.60;;;22.91;41.44;97871.59;5021277;28;21055;-72
2023/06/17 08:59:49;;;;;;;5.30;4.80;;;23.00;53.80;;;22.53;40.91;97822.09;5029546;28;20587;-74
2023/06/17 09:02:17;;;;;;;4.50;4.20;;;22.90;53.20;;;23.01;41.11;97858.78;5024968;28;20966;-75
2023/06/17 09:04:45;;;;;;;5.93;5.33;;;23.00;53.50;;;23.03;40.55;97859.28;5026630;28;20795;-74
2023/06/17 09:07:13;;;;;;;5.80;5.20;;;23.10;53.10;;;23.17;40.80;97862.06;5025082;28;20470;-74
2023/06/17 09:09:48;;;;;;;5.60;5.13;;;23.30;53.50;;;23.47;38.91;97857.16;5035684;28;20491;-70
2023/06/17 09:12:15;;;;;;;6.07;5.57;;;23.40;52.30;;;23.33;38.94;97859.91;5000207;28;20453;-72
2023/06/17 09:14:44;;;;;;;5.90;5.40;;;23.40;51.50;;;22.88;38.82;97797.84;5020947;28;20462;-74
2023/06/17 09:17:28;;;;;;;5.63;5.13;;;23.30;51.40;;;23.42;39.18;97858.06;5025527;28;20497;-74
2023/06/17 09:19:56;;;;;;;7.40;4.90;;;23.40;51.70;;;23.59;39.19;97845.66;5024409;28;20494;-74
2023/06/17 09:22:27;;;;;;;6.00;5.50;;;23.50;51.80;;;23.76;38.18;97848.59;5026053;28;20471;-72
2023/06/17 09:24:59;;;;;;;5.40;4.90;;;23.80;51.50;;;23.94;37.89;97848.78;5016158;28;20462;-74
2023/06/17 09:27:27;;;;;;;5.50;5.00;;;23.90;50.80;;;24.07;36.54;97843.59;5016114;28;20827;-73
2023/06/17 09:30:09;;;;;;;6.00;5.23;;;24.00;50.00;;;24.29;36.43;97832.59;5029054;28;20491;-73
2023/06/17 09:32:40;;;;;;;5.00;4.60;;;24.20;49.80;;;24.62;36.21;97843.44;5027050;28;20490;-72
2023/06/17 09:35:14;;;;;;;5.57;4.57;;;24.50;49.50;;;24.33;34.76;97832.81;5020537;28;20464;-71
2023/06/17 09:37:44;;;;;;;5.33;4.83;;;24.50;48.00;;;24.26;35.17;97830.47;5037023;28;20493;-74
2023/06/17 09:40:13;;;;;;;6.17;4.83;;;24.40;47.90;;;24.38;33.89;97823.59;5029803;28;21025;-72
2023/06/17 09:42:44;;;;;;;4.70;4.30;;;24.50;47.50;;;24.03;33.95;97835.13;5027040;28;20473;-73
2023/06/17 09:45:18;;;;;;;5.80;4.33;;;24.30;46.70;;;23.85;33.55;97839.59;5002865;28;20473;-75
2023/06/17 09:47:53;;;;;;;4.20;3.80;;;24.00;46.20;;;24.02;33.04;97831.53;5007841;28;20534;-75
2023/06/17 09:50:22;;;;;;;4.80;4.30;;;24.10;45.80;;;24.29;33.50;97821.56;5023740;28;20565;-73
2023/06/17 09:52:54;;;;;;;4.10;3.70;;;24.30;46.30;;;24.65;33.18;97817.16;5032127;28;20463;-75
2023/06/17 09:55:23;;;;;;;4.87;4.47;;;24.60;46.20;;;24.52;32.94;97824.38;5012521;28;20458;-75
2023/06/17 09:57:53;;;;;;;5.03;4.53;;;24.60;45.80;;;24.35;33.85;97824.22;5025909;28;20594;-72
2023/06/17 10:00:24;;;;;;;4.73;4.10;;;24.50;46.20;;;24.13;33.86;97831.31;5033720;28;20499;-73
2023/06/17 10:02:53;;;;;;;4.80;4.40;;;24.30;46.10;;;23.97;33.33;97831.63;5028297;28;20941;-74
2023/06/17 10:05:20;;;;;;;4.70;4.30;;;24.10;45.30;;;24.02;33.14;97823.25;5029155;28;20482;-72
2023/06/17 10:07:49;;;;;;;3.97;3.60;;;24.10;45.30;;;24.41;32.90;97811.94;5030056;28;20939;-73
2023/06/17 10:10:17;;;;;;;4.43;4.03;;;24.30;45.50;;;24.61;31.99;97805.09;5030082;28;20946;-73
2023/06/17 10:12:48;;;;;;;4.70;4.30;;;24.60;44.80;;;24.73;31.49;97818.34;5028678;28;20455;-72
2023/06/17 10:15:20;;;;;;;4.37;3.97;;;24.80;44.70;;;24.73;31.52;97818.34;5029582;28;20954;-73
2023/06/17 10:17:49;;;;;;;4.77;4.37;;;24.80;44.40;;;24.74;31.61;97809.75;5028475;28;20838;-73
2023/06/17 10:20:19;;;;;;;5.73;5.13;;;24.80;44.40;;;24.92;30.55;97803.53;5011596;28;20812;-73
2023/06/17 10:22:50;;;;;;;5.07;3.97;;;24.90;44.00;;;24.90;30.86;97796.38;5030365;28;20809;-74
2023/06/17 10:25:17;;;;;;;3.57;3.27;;;25.00;43.80;;;24.99;31.28;97792.88;5017712;28;20441;-75